Portada
METAR-TAF:

METAR-TAF

Aeroports :

Sukhothai, Tailàndia

latitud: 17-14-16N, longitud: 099-49-05E, altitud: 55 m

Observació

L'informe es va fer fa 34 minuts, a les 10:00 UTC
Vent 7 kt del Sud-Oest
Temperatura 31°C
Humitat 63%
Pressió 1004 hPa
Visibilitat 10 km o més
Escasses núvols a una alçada de 2500 ft

METAR: VTPO 171000Z 23007KT 9999 FEW025 31/23 Q1004 NOSIG

Hora: 17:34 (10:34 UTC)

Pronòstic

L'informe es va fer fa 5 hores i 34 minuts, a les 05:00 UTC
Pronòstic vàlid del 17 a les 06 UTC al 18 a les 06 UTC
Vent 5 kt del Sud-Oest
Visibilitat 10 km o més
Núvols disperses a una alçada de 2500 ft
Temporalment
l' 17 a les 09 UTC al 17 a les 13 UTC
Vent 15 kt amb direcció variable amb ràfegues de 30 kt
Visibilitat: 4000 m
Escasses núvols a una alçada de 1800 ft, Cumulonimbus.
Cel ennuvolat a una alçada de 2500 ft
tempesta, pluja

TAF: VTPO 170500Z 1706/1806 22005KT 9999 SCT025 TEMPO 1709/1713 VRB15G30KT 4000 TSRA FEW018CB BKN025

Observacions i pronòstics meteorològics de més de 4000 aeroports (METAR i TAF).

Les estacions disponibles són els punts grocs i vermells al mapa.

Posi el ratolí al punt desitjat per veure el nom de l'estació.

Feu clic per veure les observacions i els pronòstics meteorològics.

Per canviar el mapa: feu clic els botons verds amb una creu de color negre per apropar; al botó verd amb un guió per allunyar la imatge; o en les fletxes verdes per a mapes adjacents.


METAR-TAF: